Terminal Aerodrome Forecast
Issued by NWS Goodland, KS

Home | Current Version | Previous Version | Text Only | Print | Product List | Glossary On
Versions: 1 2 3 4 5 6 7 8 9 10 11 12
000
FTUS43 KGLD 301808 AAA
TAFGLD
TAF AMD
KGLD 301808Z 3018/0118 15015G25KT P6SM BKN200
     FM010000 14008KT P6SM BKN150
     FM011500 16008KT P6SM SCT150=

USA.gov is the U.S. government's official web portal to all federal, state and local government web resources and services.